sensor_id;sensor_type;location;lat;lon;timestamp;P1;durP1;ratioP1;P2;durP2;ratioP2
15297;SDS011;7750;48.796;9.026;2023-03-01T00:03:01;23.60;;;14.83;;
15297;SDS011;7750;48.796;9.026;2023-03-01T00:08:02;20.70;;;14.83;;
15297;SDS011;7750;48.796;9.026;2023-03-01T00:13:03;19.60;;;14.20;;
15297;SDS011;7750;48.796;9.026;2023-03-01T00:18:05;22.00;;;14.80;;
15297;SDS011;7750;48.796;9.026;2023-03-01T00:23:06;20.20;;;13.87;;
15297;SDS011;7750;48.796;9.026;2023-03-01T00:28:06;21.70;;;15.30;;
15297;SDS011;7750;48.796;9.026;2023-03-01T00:33:07;20.97;;;15.13;;
15297;SDS011;7750;48.796;9.026;2023-03-01T00:38:08;17.90;;;14.10;;
15297;SDS011;7750;48.796;9.026;2023-03-01T00:43:08;22.37;;;15.73;;
15297;SDS011;7750;48.796;9.026;2023-03-01T00:48:10;22.23;;;15.73;;
15297;SDS011;7750;48.796;9.026;2023-03-01T00:53:10;21.70;;;15.33;;
15297;SDS011;7750;48.796;9.026;2023-03-01T00:58:11;19.57;;;14.10;;
15297;SDS011;7750;48.796;9.026;2023-03-01T01:03:11;20.43;;;14.30;;
15297;SDS011;7750;48.796;9.026;2023-03-01T01:08:12;22.77;;;14.20;;
15297;SDS011;7750;48.796;9.026;2023-03-01T01:13:14;19.73;;;13.80;;
15297;SDS011;7750;48.796;9.026;2023-03-01T01:18:14;18.97;;;13.27;;
15297;SDS011;7750;48.796;9.026;2023-03-01T01:23:15;23.23;;;15.47;;
15297;SDS011;7750;48.796;9.026;2023-03-01T01:28:16;22.40;;;15.27;;
15297;SDS011;7750;48.796;9.026;2023-03-01T01:33:16;20.00;;;13.23;;
15297;SDS011;7750;48.796;9.026;2023-03-01T01:38:17;22.00;;;14.77;;
15297;SDS011;7750;48.796;9.026;2023-03-01T01:43:19;20.37;;;14.50;;
15297;SDS011;7750;48.796;9.026;2023-03-01T01:48:30;25.87;;;14.60;;
15297;SDS011;7750;48.796;9.026;2023-03-01T01:53:42;18.30;;;13.90;;
15297;SDS011;7750;48.796;9.026;2023-03-01T01:58:44;22.17;;;15.53;;
15297;SDS011;7750;48.796;9.026;2023-03-01T02:03:47;22.50;;;15.37;;
15297;SDS011;7750;48.796;9.026;2023-03-01T02:08:48;21.57;;;15.43;;
15297;SDS011;7750;48.796;9.026;2023-03-01T02:13:51;20.63;;;13.57;;
15297;SDS011;7750;48.796;9.026;2023-03-01T02:18:54;22.63;;;13.97;;
15297;SDS011;7750;48.796;9.026;2023-03-01T02:23:56;21.10;;;14.80;;
15297;SDS011;7750;48.796;9.026;2023-03-01T02:28:59;20.60;;;14.00;;
15297;SDS011;7750;48.796;9.026;2023-03-01T02:33:59;24.17;;;15.60;;
15297;SDS011;7750;48.796;9.026;2023-03-01T02:39:05;20.47;;;15.23;;
15297;SDS011;7750;48.796;9.026;2023-03-01T02:44:07;21.43;;;13.97;;
15297;SDS011;7750;48.796;9.026;2023-03-01T02:49:22;21.07;;;14.97;;
15297;SDS011;7750;48.796;9.026;2023-03-01T02:54:28;21.47;;;14.70;;
15297;SDS011;7750;48.796;9.026;2023-03-01T02:59:37;19.23;;;13.43;;
15297;SDS011;7750;48.796;9.026;2023-03-01T03:04:42;21.57;;;16.07;;
15297;SDS011;7750;48.796;9.026;2023-03-01T03:09:42;22.37;;;15.53;;
15297;SDS011;7750;48.796;9.026;2023-03-01T03:14:43;22.13;;;15.43;;
15297;SDS011;7750;48.796;9.026;2023-03-01T03:19:44;22.70;;;14.73;;
15297;SDS011;7750;48.796;9.026;2023-03-01T03:24:45;21.50;;;14.80;;
15297;SDS011;7750;48.796;9.026;2023-03-01T03:29:46;24.00;;;15.97;;
15297;SDS011;7750;48.796;9.026;2023-03-01T03:34:46;22.00;;;15.43;;
15297;SDS011;7750;48.796;9.026;2023-03-01T03:39:48;19.57;;;14.63;;
15297;SDS011;7750;48.796;9.026;2023-03-01T03:44:48;23.90;;;15.43;;
15297;SDS011;7750;48.796;9.026;2023-03-01T03:49:49;21.37;;;14.63;;
15297;SDS011;7750;48.796;9.026;2023-03-01T03:54:50;21.23;;;15.67;;
15297;SDS011;7750;48.796;9.026;2023-03-01T03:59:50;22.60;;;14.63;;
15297;SDS011;7750;48.796;9.026;2023-03-01T04:04:51;22.70;;;16.37;;
15297;SDS011;7750;48.796;9.026;2023-03-01T04:09:52;23.30;;;15.20;;
15297;SDS011;7750;48.796;9.026;2023-03-01T04:14:52;26.47;;;16.83;;
15297;SDS011;7750;48.796;9.026;2023-03-01T04:19:53;21.40;;;14.37;;
15297;SDS011;7750;48.796;9.026;2023-03-01T04:24:53;21.20;;;15.50;;
15297;SDS011;7750;48.796;9.026;2023-03-01T04:29:55;21.47;;;15.87;;
15297;SDS011;7750;48.796;9.026;2023-03-01T04:34:55;23.90;;;16.40;;
15297;SDS011;7750;48.796;9.026;2023-03-01T04:39:56;22.77;;;17.37;;
15297;SDS011;7750;48.796;9.026;2023-03-01T04:44:57;23.93;;;15.67;;
15297;SDS011;7750;48.796;9.026;2023-03-01T04:49:57;24.60;;;16.80;;
15297;SDS011;7750;48.796;9.026;2023-03-01T04:54:58;24.33;;;13.80;;
15297;SDS011;7750;48.796;9.026;2023-03-01T04:59:58;24.33;;;16.30;;
15297;SDS011;7750;48.796;9.026;2023-03-01T05:04:59;22.40;;;16.40;;
15297;SDS011;7750;48.796;9.026;2023-03-01T05:10:00;22.77;;;15.90;;
15297;SDS011;7750;48.796;9.026;2023-03-01T05:15:00;22.63;;;16.53;;
15297;SDS011;7750;48.796;9.026;2023-03-01T05:20:07;24.33;;;17.03;;
15297;SDS011;7750;48.796;9.026;2023-03-01T05:25:11;25.13;;;17.40;;
15297;SDS011;7750;48.796;9.026;2023-03-01T05:30:14;23.77;;;16.83;;
15297;SDS011;7750;48.796;9.026;2023-03-01T05:35:16;25.50;;;17.43;;
15297;SDS011;7750;48.796;9.026;2023-03-01T05:40:18;28.93;;;16.47;;
15297;SDS011;7750;48.796;9.026;2023-03-01T05:45:21;24.70;;;16.20;;
15297;SDS011;7750;48.796;9.026;2023-03-01T05:50:27;28.33;;;19.37;;
15297;SDS011;7750;48.796;9.026;2023-03-01T05:55:29;23.70;;;16.50;;
15297;SDS011;7750;48.796;9.026;2023-03-01T06:00:31;25.73;;;17.60;;
15297;SDS011;7750;48.796;9.026;2023-03-01T06:05:34;24.77;;;15.33;;
15297;SDS011;7750;48.796;9.026;2023-03-01T06:10:35;25.63;;;18.20;;
15297;SDS011;7750;48.796;9.026;2023-03-01T06:15:35;25.70;;;17.90;;
15297;SDS011;7750;48.796;9.026;2023-03-01T06:20:36;23.07;;;16.77;;
15297;SDS011;7750;48.796;9.026;2023-03-01T06:25:37;25.73;;;18.20;;
15297;SDS011;7750;48.796;9.026;2023-03-01T06:30:37;28.50;;;18.87;;
15297;SDS011;7750;48.796;9.026;2023-03-01T06:35:38;24.60;;;17.17;;
15297;SDS011;7750;48.796;9.026;2023-03-01T06:40:38;26.77;;;18.47;;
15297;SDS011;7750;48.796;9.026;2023-03-01T06:45:39;26.97;;;19.03;;
15297;SDS011;7750;48.796;9.026;2023-03-01T06:50:39;27.43;;;19.30;;
15297;SDS011;7750;48.796;9.026;2023-03-01T06:55:40;26.60;;;18.73;;
15297;SDS011;7750;48.796;9.026;2023-03-01T07:00:41;26.30;;;19.27;;
15297;SDS011;7750;48.796;9.026;2023-03-01T07:05:43;26.20;;;18.37;;
15297;SDS011;7750;48.796;9.026;2023-03-01T07:10:44;27.47;;;18.20;;
15297;SDS011;7750;48.796;9.026;2023-03-01T07:15:45;27.43;;;19.03;;
15297;SDS011;7750;48.796;9.026;2023-03-01T07:20:45;28.07;;;19.17;;
15297;SDS011;7750;48.796;9.026;2023-03-01T07:25:52;26.97;;;19.63;;
15297;SDS011;7750;48.796;9.026;2023-03-01T07:30:54;23.30;;;17.20;;
15297;SDS011;7750;48.796;9.026;2023-03-01T07:36:02;25.50;;;18.13;;
15297;SDS011;7750;48.796;9.026;2023-03-01T07:41:04;28.80;;;17.50;;
15297;SDS011;7750;48.796;9.026;2023-03-01T07:46:05;22.77;;;17.37;;
15297;SDS011;7750;48.796;9.026;2023-03-01T07:51:06;22.47;;;17.20;;
15297;SDS011;7750;48.796;9.026;2023-03-01T07:56:08;25.07;;;17.40;;
15297;SDS011;7750;48.796;9.026;2023-03-01T08:01:12;23.70;;;17.17;;
15297;SDS011;7750;48.796;9.026;2023-03-01T08:06:19;21.67;;;16.80;;
15297;SDS011;7750;48.796;9.026;2023-03-01T08:11:19;19.30;;;15.13;;
15297;SDS011;7750;48.796;9.026;2023-03-01T08:16:20;26.50;;;18.60;;
15297;SDS011;7750;48.796;9.026;2023-03-01T08:21:21;27.83;;;19.47;;
15297;SDS011;7750;48.796;9.026;2023-03-01T08:26:22;24.07;;;18.20;;
15297;SDS011;7750;48.796;9.026;2023-03-01T08:31:23;25.60;;;19.00;;
15297;SDS011;7750;48.796;9.026;2023-03-01T08:36:35;23.07;;;16.73;;
15297;SDS011;7750;48.796;9.026;2023-03-01T08:41:38;26.10;;;18.83;;
15297;SDS011;7750;48.796;9.026;2023-03-01T08:46:40;22.40;;;17.60;;
15297;SDS011;7750;48.796;9.026;2023-03-01T08:51:42;27.23;;;19.10;;
15297;SDS011;7750;48.796;9.026;2023-03-01T08:56:43;26.20;;;18.17;;
15297;SDS011;7750;48.796;9.026;2023-03-01T09:01:44;26.70;;;17.97;;
15297;SDS011;7750;48.796;9.026;2023-03-01T09:06:45;26.43;;;18.80;;
15297;SDS011;7750;48.796;9.026;2023-03-01T09:11:46;27.20;;;19.37;;
15297;SDS011;7750;48.796;9.026;2023-03-01T09:16:46;33.57;;;20.00;;
15297;SDS011;7750;48.796;9.026;2023-03-01T09:21:47;26.27;;;19.37;;
15297;SDS011;7750;48.796;9.026;2023-03-01T09:26:55;28.33;;;19.20;;
15297;SDS011;7750;48.796;9.026;2023-03-01T09:31:56;26.47;;;19.87;;
15297;SDS011;7750;48.796;9.026;2023-03-01T09:36:57;29.03;;;20.40;;
15297;SDS011;7750;48.796;9.026;2023-03-01T09:42:02;28.23;;;20.40;;
15297;SDS011;7750;48.796;9.026;2023-03-01T09:47:04;26.73;;;19.87;;
15297;SDS011;7750;48.796;9.026;2023-03-01T09:52:20;28.47;;;19.63;;
15297;SDS011;7750;48.796;9.026;2023-03-01T09:57:32;26.00;;;19.40;;
15297;SDS011;7750;48.796;9.026;2023-03-01T10:02:43;29.17;;;20.97;;
15297;SDS011;7750;48.796;9.026;2023-03-01T10:07:59;33.27;;;21.20;;
15297;SDS011;7750;48.796;9.026;2023-03-01T10:13:04;24.57;;;17.90;;
15297;SDS011;7750;48.796;9.026;2023-03-01T10:18:38;27.20;;;19.70;;
15297;SDS011;7750;48.796;9.026;2023-03-01T10:23:41;28.80;;;20.00;;
15297;SDS011;7750;48.796;9.026;2023-03-01T10:28:54;27.13;;;18.77;;
15297;SDS011;7750;48.796;9.026;2023-03-01T10:34:38;30.27;;;20.80;;
15297;SDS011;7750;48.796;9.026;2023-03-01T10:39:34;29.67;;;21.40;;
15297;SDS011;7750;48.796;9.026;2023-03-01T10:44:45;32.47;;;22.10;;
15297;SDS011;7750;48.796;9.026;2023-03-01T10:49:54;33.60;;;20.80;;
15297;SDS011;7750;48.796;9.026;2023-03-01T10:55:26;27.90;;;19.10;;
15297;SDS011;7750;48.796;9.026;2023-03-01T11:00:27;23.80;;;17.93;;
15297;SDS011;7750;48.796;9.026;2023-03-01T11:05:28;30.60;;;20.40;;
15297;SDS011;7750;48.796;9.026;2023-03-01T11:10:34;26.83;;;19.03;;
15297;SDS011;7750;48.796;9.026;2023-03-01T11:15:38;27.27;;;19.23;;
15297;SDS011;7750;48.796;9.026;2023-03-01T11:20:39;34.07;;;20.60;;
15297;SDS011;7750;48.796;9.026;2023-03-01T11:31:08;29.38;;;21.58;;
15297;SDS011;7750;48.796;9.026;2023-03-01T11:41:35;23.23;;;16.37;;
15297;SDS011;7750;48.796;9.026;2023-03-01T11:46:42;23.40;;;18.20;;
15297;SDS011;7750;48.796;9.026;2023-03-01T11:57:00;24.10;;;17.33;;
15297;SDS011;7750;48.796;9.026;2023-03-01T12:02:16;22.23;;;16.57;;
15297;SDS011;7750;48.796;9.026;2023-03-01T12:12:49;22.20;;;16.60;;
15297;SDS011;7750;48.796;9.026;2023-03-01T12:29:31;23.40;;;17.13;;
15297;SDS011;7750;48.796;9.026;2023-03-01T12:50:42;21.93;;;16.90;;
15297;SDS011;7750;48.796;9.026;2023-03-01T12:55:48;27.17;;;17.60;;
15297;SDS011;7750;48.796;9.026;2023-03-01T13:06:22;23.50;;;17.80;;
15297;SDS011;7750;48.796;9.026;2023-03-01T13:11:48;27.20;;;16.80;;
15297;SDS011;7750;48.796;9.026;2023-03-01T13:16:52;20.80;;;15.30;;
15297;SDS011;7750;48.796;9.026;2023-03-01T13:21:55;23.40;;;16.13;;
15297;SDS011;7750;48.796;9.026;2023-03-01T13:32:06;26.20;;;17.80;;
15297;SDS011;7750;48.796;9.026;2023-03-01T13:37:27;23.40;;;16.27;;
15297;SDS011;7750;48.796;9.026;2023-03-01T13:42:42;27.67;;;15.77;;
15297;SDS011;7750;48.796;9.026;2023-03-01T13:47:46;24.90;;;17.37;;
15297;SDS011;7750;48.796;9.026;2023-03-01T13:57:56;29.83;;;19.20;;
15297;SDS011;7750;48.796;9.026;2023-03-01T14:02:59;24.90;;;18.60;;
15297;SDS011;7750;48.796;9.026;2023-03-01T14:08:05;29.13;;;19.20;;
15297;SDS011;7750;48.796;9.026;2023-03-01T14:14:04;21.77;;;16.43;;
15297;SDS011;7750;48.796;9.026;2023-03-01T14:18:49;20.97;;;15.30;;
15297;SDS011;7750;48.796;9.026;2023-03-01T14:24:18;28.77;;;18.77;;
15297;SDS011;7750;48.796;9.026;2023-03-01T14:29:27;34.03;;;19.10;;
15297;SDS011;7750;48.796;9.026;2023-03-01T14:34:34;23.07;;;16.43;;
15297;SDS011;7750;48.796;9.026;2023-03-01T14:39:34;20.77;;;16.57;;
15297;SDS011;7750;48.796;9.026;2023-03-01T14:44:35;25.87;;;18.30;;
15297;SDS011;7750;48.796;9.026;2023-03-01T14:49:37;21.00;;;15.90;;
15297;SDS011;7750;48.796;9.026;2023-03-01T14:59:47;25.30;;;17.03;;
15297;SDS011;7750;48.796;9.026;2023-03-01T15:04:57;23.80;;;17.57;;
15297;SDS011;7750;48.796;9.026;2023-03-01T15:10:04;26.27;;;17.00;;
15297;SDS011;7750;48.796;9.026;2023-03-01T15:20:44;23.77;;;17.60;;
15297;SDS011;7750;48.796;9.026;2023-03-01T15:25:45;33.80;;;17.50;;
15297;SDS011;7750;48.796;9.026;2023-03-01T15:30:45;25.00;;;17.57;;
15297;SDS011;7750;48.796;9.026;2023-03-01T15:37:32;26.13;;;17.50;;
15297;SDS011;7750;48.796;9.026;2023-03-01T15:41:46;28.00;;;17.80;;
15297;SDS011;7750;48.796;9.026;2023-03-01T15:46:48;26.83;;;18.90;;
15297;SDS011;7750;48.796;9.026;2023-03-01T15:51:49;24.60;;;15.93;;
15297;SDS011;7750;48.796;9.026;2023-03-01T15:56:49;27.20;;;18.23;;
15297;SDS011;7750;48.796;9.026;2023-03-01T16:01:50;23.50;;;16.93;;
15297;SDS011;7750;48.796;9.026;2023-03-01T16:06:53;28.90;;;16.80;;
15297;SDS011;7750;48.796;9.026;2023-03-01T16:11:54;21.80;;;15.07;;
15297;SDS011;7750;48.796;9.026;2023-03-01T16:16:54;22.37;;;17.07;;
15297;SDS011;7750;48.796;9.026;2023-03-01T16:21:55;23.90;;;16.70;;
15297;SDS011;7750;48.796;9.026;2023-03-01T16:26:55;21.47;;;15.70;;
15297;SDS011;7750;48.796;9.026;2023-03-01T16:31:56;23.23;;;15.83;;
15297;SDS011;7750;48.796;9.026;2023-03-01T16:36:59;26.67;;;16.90;;
15297;SDS011;7750;48.796;9.026;2023-03-01T16:42:00;24.50;;;15.97;;
15297;SDS011;7750;48.796;9.026;2023-03-01T16:47:01;23.93;;;15.63;;
15297;SDS011;7750;48.796;9.026;2023-03-01T16:52:01;23.70;;;15.80;;
15297;SDS011;7750;48.796;9.026;2023-03-01T16:57:02;27.40;;;17.47;;
15297;SDS011;7750;48.796;9.026;2023-03-01T17:02:06;23.07;;;15.80;;
15297;SDS011;7750;48.796;9.026;2023-03-01T17:07:10;23.00;;;15.10;;
15297;SDS011;7750;48.796;9.026;2023-03-01T17:12:11;23.40;;;15.60;;
15297;SDS011;7750;48.796;9.026;2023-03-01T17:17:13;24.57;;;15.20;;
15297;SDS011;7750;48.796;9.026;2023-03-01T17:22:13;21.80;;;14.77;;
15297;SDS011;7750;48.796;9.026;2023-03-01T17:27:15;24.30;;;16.47;;
15297;SDS011;7750;48.796;9.026;2023-03-01T17:32:16;24.20;;;16.47;;
15297;SDS011;7750;48.796;9.026;2023-03-01T17:37:17;25.03;;;16.23;;
15297;SDS011;7750;48.796;9.026;2023-03-01T17:42:17;24.67;;;15.53;;
15297;SDS011;7750;48.796;9.026;2023-03-01T17:47:18;22.73;;;15.20;;
15297;SDS011;7750;48.796;9.026;2023-03-01T17:52:18;23.30;;;15.70;;
15297;SDS011;7750;48.796;9.026;2023-03-01T17:57:22;21.57;;;15.17;;
15297;SDS011;7750;48.796;9.026;2023-03-01T18:02:23;25.33;;;16.17;;
15297;SDS011;7750;48.796;9.026;2023-03-01T18:07:26;22.50;;;15.90;;
15297;SDS011;7750;48.796;9.026;2023-03-01T18:12:27;25.50;;;17.27;;
15297;SDS011;7750;48.796;9.026;2023-03-01T18:17:27;23.53;;;16.07;;
15297;SDS011;7750;48.796;9.026;2023-03-01T18:22:28;25.67;;;17.40;;
15297;SDS011;7750;48.796;9.026;2023-03-01T18:27:29;26.70;;;18.37;;
15297;SDS011;7750;48.796;9.026;2023-03-01T18:32:30;27.10;;;17.10;;
15297;SDS011;7750;48.796;9.026;2023-03-01T18:37:31;24.70;;;16.87;;
15297;SDS011;7750;48.796;9.026;2023-03-01T18:42:31;22.27;;;17.00;;
15297;SDS011;7750;48.796;9.026;2023-03-01T18:47:32;25.57;;;16.10;;
15297;SDS011;7750;48.796;9.026;2023-03-01T18:52:32;26.03;;;15.90;;
15297;SDS011;7750;48.796;9.026;2023-03-01T18:57:33;26.53;;;17.67;;
15297;SDS011;7750;48.796;9.026;2023-03-01T19:02:34;21.90;;;16.07;;
15297;SDS011;7750;48.796;9.026;2023-03-01T19:07:34;24.67;;;16.20;;
15297;SDS011;7750;48.796;9.026;2023-03-01T19:12:35;25.20;;;16.93;;
15297;SDS011;7750;48.796;9.026;2023-03-01T19:17:36;24.90;;;16.90;;
15297;SDS011;7750;48.796;9.026;2023-03-01T19:22:36;26.50;;;18.00;;
15297;SDS011;7750;48.796;9.026;2023-03-01T19:27:37;25.23;;;17.67;;
15297;SDS011;7750;48.796;9.026;2023-03-01T19:32:38;25.50;;;18.17;;
15297;SDS011;7750;48.796;9.026;2023-03-01T19:37:39;27.53;;;18.73;;
15297;SDS011;7750;48.796;9.026;2023-03-01T19:42:39;26.63;;;18.13;;
15297;SDS011;7750;48.796;9.026;2023-03-01T19:47:40;24.87;;;16.83;;
15297;SDS011;7750;48.796;9.026;2023-03-01T19:52:40;24.33;;;17.87;;
15297;SDS011;7750;48.796;9.026;2023-03-01T19:57:41;24.97;;;18.90;;
15297;SDS011;7750;48.796;9.026;2023-03-01T20:02:42;27.87;;;19.70;;
15297;SDS011;7750;48.796;9.026;2023-03-01T20:07:42;26.13;;;18.03;;
15297;SDS011;7750;48.796;9.026;2023-03-01T20:12:43;26.97;;;18.50;;
15297;SDS011;7750;48.796;9.026;2023-03-01T20:17:44;30.10;;;20.30;;
15297;SDS011;7750;48.796;9.026;2023-03-01T20:22:44;29.43;;;20.77;;
15297;SDS011;7750;48.796;9.026;2023-03-01T20:27:45;24.27;;;17.00;;
15297;SDS011;7750;48.796;9.026;2023-03-01T20:32:46;27.20;;;20.37;;
15297;SDS011;7750;48.796;9.026;2023-03-01T20:37:47;29.07;;;19.80;;
15297;SDS011;7750;48.796;9.026;2023-03-01T20:42:49;30.73;;;18.97;;
15297;SDS011;7750;48.796;9.026;2023-03-01T20:47:50;26.07;;;19.20;;
15297;SDS011;7750;48.796;9.026;2023-03-01T20:52:51;29.90;;;20.83;;
15297;SDS011;7750;48.796;9.026;2023-03-01T20:57:52;25.70;;;19.13;;
15297;SDS011;7750;48.796;9.026;2023-03-01T21:02:52;26.33;;;18.17;;
15297;SDS011;7750;48.796;9.026;2023-03-01T21:07:53;28.30;;;21.00;;
15297;SDS011;7750;48.796;9.026;2023-03-01T21:12:53;31.83;;;20.80;;
15297;SDS011;7750;48.796;9.026;2023-03-01T21:17:54;27.37;;;18.80;;
15297;SDS011;7750;48.796;9.026;2023-03-01T21:22:55;33.47;;;21.20;;
15297;SDS011;7750;48.796;9.026;2023-03-01T21:27:55;25.30;;;18.27;;
15297;SDS011;7750;48.796;9.026;2023-03-01T21:32:56;31.70;;;20.10;;
15297;SDS011;7750;48.796;9.026;2023-03-01T21:37:57;28.30;;;21.80;;
15297;SDS011;7750;48.796;9.026;2023-03-01T21:42:57;25.87;;;18.90;;
15297;SDS011;7750;48.796;9.026;2023-03-01T21:47:58;28.53;;;20.10;;
15297;SDS011;7750;48.796;9.026;2023-03-01T21:52:58;27.07;;;20.00;;
15297;SDS011;7750;48.796;9.026;2023-03-01T21:58:04;28.20;;;18.67;;
15297;SDS011;7750;48.796;9.026;2023-03-01T22:03:04;26.30;;;19.23;;
15297;SDS011;7750;48.796;9.026;2023-03-01T22:08:05;28.43;;;21.00;;
15297;SDS011;7750;48.796;9.026;2023-03-01T22:13:07;32.40;;;21.67;;
15297;SDS011;7750;48.796;9.026;2023-03-01T22:18:08;32.07;;;21.93;;
15297;SDS011;7750;48.796;9.026;2023-03-01T22:23:09;31.50;;;21.97;;
15297;SDS011;7750;48.796;9.026;2023-03-01T22:28:10;29.73;;;20.17;;
15297;SDS011;7750;48.796;9.026;2023-03-01T22:33:10;29.10;;;19.77;;
15297;SDS011;7750;48.796;9.026;2023-03-01T22:38:11;29.40;;;21.90;;
15297;SDS011;7750;48.796;9.026;2023-03-01T22:43:12;27.67;;;20.77;;
15297;SDS011;7750;48.796;9.026;2023-03-01T22:48:12;28.03;;;20.40;;
15297;SDS011;7750;48.796;9.026;2023-03-01T22:53:13;30.57;;;21.10;;
15297;SDS011;7750;48.796;9.026;2023-03-01T22:58:14;31.80;;;21.23;;
15297;SDS011;7750;48.796;9.026;2023-03-01T23:03:14;31.60;;;21.37;;
15297;SDS011;7750;48.796;9.026;2023-03-01T23:08:16;25.87;;;19.60;;
15297;SDS011;7750;48.796;9.026;2023-03-01T23:13:16;29.17;;;20.00;;
15297;SDS011;7750;48.796;9.026;2023-03-01T23:18:17;27.37;;;18.03;;
15297;SDS011;7750;48.796;9.026;2023-03-01T23:23:18;29.60;;;19.07;;
15297;SDS011;7750;48.796;9.026;2023-03-01T23:28:19;27.90;;;20.93;;
15297;SDS011;7750;48.796;9.026;2023-03-01T23:33:20;28.47;;;20.37;;
15297;SDS011;7750;48.796;9.026;2023-03-01T23:38:20;33.77;;;21.90;;
15297;SDS011;7750;48.796;9.026;2023-03-01T23:43:21;28.57;;;19.70;;
15297;SDS011;7750;48.796;9.026;2023-03-01T23:48:22;30.03;;;20.80;;
15297;SDS011;7750;48.796;9.026;2023-03-01T23:53:22;29.47;;;19.93;;
15297;SDS011;7750;48.796;9.026;2023-03-01T23:58:23;40.10;;;20.17;;
